createdAt,value
2018-06-17T00:01:16.883Z,16.10
2018-06-17T00:03:45.388Z,16.00
2018-06-17T00:06:13.858Z,16.00
2018-06-17T00:08:42.337Z,16.00
2018-06-17T00:11:10.813Z,16.00
2018-06-17T00:13:39.206Z,15.80
2018-06-17T00:16:07.741Z,15.80
2018-06-17T00:18:36.179Z,15.70
2018-06-17T00:21:04.660Z,15.60
2018-06-17T00:23:33.128Z,15.50
2018-06-17T00:26:01.620Z,15.40
2018-06-17T00:28:30.218Z,15.40
2018-06-17T00:30:58.859Z,15.30
2018-06-17T00:33:27.369Z,15.20
2018-06-17T00:35:55.961Z,15.20
2018-06-17T00:38:24.437Z,15.10
2018-06-17T00:40:52.959Z,15.10
2018-06-17T00:43:21.399Z,15.00
2018-06-17T00:45:49.863Z,15.10
2018-06-17T00:48:18.321Z,15.00
2018-06-17T00:50:46.877Z,14.90
2018-06-17T00:53:15.382Z,14.80
2018-06-17T00:55:44.050Z,14.80
2018-06-17T00:58:12.461Z,14.90
2018-06-17T01:00:40.942Z,14.90
2018-06-17T01:03:09.394Z,14.90
2018-06-17T01:05:37.905Z,14.90
2018-06-17T01:08:06.539Z,14.90
2018-06-17T01:10:35.100Z,15.00
2018-06-17T01:13:03.680Z,14.90
2018-06-17T01:15:32.110Z,14.90
2018-06-17T01:18:00.598Z,14.90
2018-06-17T01:20:29.037Z,14.90
2018-06-17T01:22:57.492Z,14.80
2018-06-17T01:25:25.974Z,14.80
2018-06-17T01:27:54.372Z,14.70
2018-06-17T01:32:51.068Z,14.80
2018-06-17T01:35:19.443Z,14.80
2018-06-17T01:37:47.890Z,14.70
2018-06-17T01:40:16.332Z,14.60
2018-06-17T01:42:44.822Z,14.60
2018-06-17T01:45:13.378Z,14.60
2018-06-17T01:47:41.817Z,14.70
2018-06-17T01:50:10.335Z,14.70
2018-06-17T01:52:38.869Z,14.80
2018-06-17T01:55:07.287Z,14.80
2018-06-17T01:57:35.700Z,14.70
2018-06-17T02:00:04.632Z,14.60
2018-06-17T02:02:33.085Z,14.50
2018-06-17T02:05:07.025Z,14.50
2018-06-17T02:07:40.720Z,14.50
2018-06-17T02:10:14.661Z,14.40
2018-06-17T02:12:43.164Z,14.40
2018-06-17T02:15:11.637Z,14.40
2018-06-17T02:17:40.061Z,14.30
2018-06-17T02:20:08.576Z,14.30
2018-06-17T02:22:37.126Z,14.30
2018-06-17T02:25:05.952Z,14.10
2018-06-17T02:27:34.371Z,14.00
2018-06-17T02:30:02.816Z,13.90
2018-06-17T02:32:31.222Z,13.80
2018-06-17T02:34:59.679Z,13.70
2018-06-17T02:37:28.141Z,13.70
2018-06-17T02:39:56.520Z,13.60
2018-06-17T02:42:24.967Z,13.60
2018-06-17T02:44:58.647Z,13.70
2018-06-17T02:47:32.300Z,13.70
2018-06-17T02:50:06.029Z,13.60
2018-06-17T02:52:39.945Z,13.60
2018-06-17T02:55:08.344Z,13.60
2018-06-17T02:57:36.760Z,13.60
2018-06-17T03:00:05.252Z,13.60
2018-06-17T03:02:33.654Z,13.60
2018-06-17T03:05:02.035Z,13.50
2018-06-17T03:07:30.505Z,13.60
2018-06-17T03:09:58.910Z,13.60
2018-06-17T03:12:27.511Z,13.60
2018-06-17T03:14:55.965Z,13.60
2018-06-17T03:17:24.916Z,13.60
2018-06-17T03:19:53.381Z,13.60
2018-06-17T03:22:21.752Z,13.70
2018-06-17T03:24:55.472Z,13.70
2018-06-17T03:27:29.266Z,13.70
2018-06-17T03:30:03.162Z,13.80
2018-06-17T03:32:37.155Z,13.80
2018-06-17T03:35:11.004Z,13.90
2018-06-17T03:37:39.433Z,14.00
2018-06-17T03:40:08.163Z,13.90
2018-06-17T03:42:36.556Z,13.90
2018-06-17T03:47:33.259Z,14.00
2018-06-17T03:50:01.718Z,14.10
2018-06-17T03:52:30.163Z,14.10
2018-06-17T03:54:58.597Z,14.10
2018-06-17T03:57:27.017Z,14.10
2018-06-17T03:59:55.417Z,14.00
2018-06-17T04:02:23.840Z,14.00
2018-06-17T04:04:57.714Z,14.10
2018-06-17T04:07:26.115Z,14.20
2018-06-17T04:09:54.923Z,14.40
2018-06-17T04:12:23.320Z,14.40
2018-06-17T04:14:51.704Z,14.60
2018-06-17T04:17:20.088Z,14.60
2018-06-17T04:19:48.487Z,14.80
2018-06-17T04:22:16.965Z,14.90
2018-06-17T04:24:45.340Z,15.10
2018-06-17T04:27:14.662Z,15.20
2018-06-17T04:29:43.026Z,15.40
2018-06-17T04:32:11.589Z,15.50
2018-06-17T04:34:40.092Z,15.70
2018-06-17T04:37:08.610Z,15.70
2018-06-17T04:39:37.095Z,15.90
2018-06-17T04:42:05.494Z,15.90
2018-06-17T04:44:33.884Z,15.90
2018-06-17T04:47:02.268Z,16.10
2018-06-17T04:49:30.656Z,15.90
2018-06-17T04:51:59.042Z,16.00
2018-06-17T04:54:27.628Z,15.80
2018-06-17T04:56:56.038Z,15.90
2018-06-17T04:59:24.450Z,16.10
2018-06-17T05:01:52.834Z,16.10
2018-06-17T05:04:21.244Z,16.30
2018-06-17T05:06:49.712Z,16.40
2018-06-17T05:09:18.125Z,16.60
2018-06-17T05:11:46.616Z,16.90
2018-06-17T05:14:15.115Z,17.00
2018-06-17T05:16:43.518Z,17.30
2018-06-17T05:19:12.004Z,17.80
2018-06-17T05:21:40.367Z,17.90
2018-06-17T05:24:08.830Z,17.90
2018-06-17T05:26:37.286Z,18.20
2018-06-17T05:29:05.751Z,18.40
2018-06-17T05:31:34.165Z,18.60
2018-06-17T05:34:02.578Z,18.50
2018-06-17T05:36:30.958Z,18.30
2018-06-17T05:38:59.419Z,18.10
2018-06-17T05:41:27.907Z,17.90
2018-06-17T05:43:56.412Z,18.00
2018-06-17T05:46:24.853Z,17.90
2018-06-17T05:48:53.451Z,17.80
2018-06-17T05:51:21.953Z,17.80
2018-06-17T05:53:50.452Z,17.90
2018-06-17T05:56:18.921Z,18.00
2018-06-17T05:58:47.329Z,18.00
2018-06-17T06:01:15.753Z,18.10
2018-06-17T06:03:44.261Z,18.10
2018-06-17T06:06:12.707Z,18.10
2018-06-17T06:08:41.137Z,18.20
2018-06-17T06:11:09.756Z,18.20
2018-06-17T06:13:38.205Z,18.30
2018-06-17T06:16:06.770Z,18.50
2018-06-17T06:18:35.216Z,18.80
2018-06-17T06:21:03.728Z,19.30
2018-06-17T06:23:32.218Z,19.80
2018-06-17T06:26:00.709Z,20.10
2018-06-17T06:28:29.186Z,20.30
2018-06-17T06:30:57.648Z,20.40
2018-06-17T06:33:26.210Z,20.60
2018-06-17T06:35:54.624Z,20.60
2018-06-17T06:38:23.069Z,20.90
2018-06-17T06:40:51.606Z,21.30
2018-06-17T06:43:20.039Z,21.40
2018-06-17T06:45:48.442Z,21.40
2018-06-17T06:48:17.230Z,21.70
2018-06-17T06:50:45.681Z,22.40
2018-06-17T06:53:14.152Z,22.40
2018-06-17T06:55:42.611Z,22.80
2018-06-17T06:58:11.016Z,22.60
2018-06-17T07:00:39.420Z,22.90
2018-06-17T07:03:18.999Z,21.90
2018-06-17T07:05:58.881Z,22.40
2018-06-17T07:08:38.610Z,22.80
2018-06-17T07:11:07.157Z,23.50
2018-06-17T07:13:35.564Z,23.90
2018-06-17T07:16:15.251Z,24.30
2018-06-17T07:18:43.702Z,24.60
2018-06-17T07:21:12.145Z,24.50
2018-06-17T07:23:40.605Z,24.50
2018-06-17T07:26:33.885Z,25.10
2018-06-17T07:29:13.624Z,25.40
2018-06-17T07:31:42.195Z,25.70
2018-06-17T07:34:11.365Z,25.40
2018-06-17T07:36:40.192Z,25.40
2018-06-17T07:40:19.795Z,25.30
2018-06-17T07:42:49.633Z,25.50
2018-06-17T07:45:18.140Z,26.20
2018-06-17T07:47:46.649Z,25.90
2018-06-17T07:50:26.678Z,25.10
2018-06-17T07:53:06.477Z,24.80
2018-06-17T07:55:35.077Z,25.30
2018-06-17T07:58:03.538Z,25.10
2018-06-17T08:00:32.072Z,25.00
2018-06-17T08:03:00.638Z,25.20
2018-06-17T08:05:29.135Z,26.20
2018-06-17T08:07:57.553Z,27.40
2018-06-17T08:10:26.116Z,28.20
2018-06-17T08:12:54.680Z,28.40
2018-06-17T08:15:23.189Z,29.20
2018-06-17T08:17:51.702Z,28.30
2018-06-17T08:20:20.287Z,26.90
2018-06-17T08:22:48.930Z,27.50
2018-06-17T08:25:17.687Z,27.80
2018-06-17T08:27:46.128Z,28.00
2018-06-17T08:30:14.674Z,28.30
2018-06-17T08:32:43.121Z,27.80
2018-06-17T08:35:11.677Z,27.70
2018-06-17T08:37:40.212Z,28.40
2018-06-17T08:40:08.767Z,29.10
2018-06-17T08:42:37.437Z,28.30
2018-06-17T08:45:05.958Z,28.20
2018-06-17T08:47:34.459Z,28.40
2018-06-17T08:50:03.000Z,28.90
2018-06-17T08:52:31.460Z,28.30
2018-06-17T08:57:28.284Z,27.80
2018-06-17T08:59:57.060Z,27.90
2018-06-17T09:02:25.548Z,28.10
2018-06-17T09:04:54.295Z,28.70
2018-06-17T09:07:22.781Z,29.20
2018-06-17T09:09:51.382Z,29.40
2018-06-17T09:12:20.220Z,29.40
2018-06-17T09:14:48.644Z,29.20
2018-06-17T09:17:17.223Z,29.00
2018-06-17T09:19:45.678Z,29.20
2018-06-17T09:22:14.154Z,28.80
2018-06-17T09:24:42.707Z,28.60
2018-06-17T09:27:11.234Z,29.30
2018-06-17T09:29:39.762Z,30.20
2018-06-17T09:32:08.422Z,31.40
2018-06-17T09:34:37.055Z,30.40
2018-06-17T09:37:05.626Z,28.80
2018-06-17T09:39:34.214Z,29.60
2018-06-17T09:44:30.828Z,30.10
2018-06-17T09:46:59.418Z,30.60
2018-06-17T09:49:28.550Z,30.70
2018-06-17T09:51:57.127Z,31.00
2018-06-17T09:54:25.644Z,30.90
2018-06-17T09:56:54.151Z,30.00
2018-06-17T09:59:22.718Z,30.90
2018-06-17T10:01:51.863Z,30.90
2018-06-17T10:04:20.323Z,31.20
2018-06-17T10:06:48.871Z,32.30
2018-06-17T10:09:17.508Z,32.10
2018-06-17T10:11:46.061Z,32.10
2018-06-17T10:14:14.623Z,32.40
2018-06-17T10:16:43.174Z,32.30
2018-06-17T10:19:11.758Z,31.70
2018-06-17T10:21:40.479Z,31.30
2018-06-17T10:24:08.996Z,31.20
2018-06-17T10:26:37.807Z,31.10
2018-06-17T10:29:08.185Z,31.00
2018-06-17T10:31:36.830Z,30.20
2018-06-17T10:34:05.575Z,29.80
2018-06-17T10:36:34.252Z,29.10
2018-06-17T10:39:02.836Z,28.60
2018-06-17T10:41:31.312Z,27.90
2018-06-17T10:43:59.859Z,27.60
2018-06-17T10:46:28.349Z,27.30
2018-06-17T10:48:57.001Z,27.10
2018-06-17T10:51:25.596Z,27.00
2018-06-17T10:53:54.057Z,27.40
2018-06-17T10:56:22.553Z,28.00
2018-06-17T11:01:19.282Z,31.00
2018-06-17T11:03:47.821Z,31.40
2018-06-17T11:06:16.970Z,30.30
2018-06-17T11:08:45.456Z,30.10
2018-06-17T11:11:13.906Z,29.60
2018-06-17T11:13:42.453Z,29.80
2018-06-17T11:16:11.082Z,29.20
2018-06-17T11:18:39.545Z,29.50
2018-06-17T11:21:08.130Z,29.20
2018-06-17T11:23:36.672Z,28.50
2018-06-17T11:26:05.336Z,28.90
2018-06-17T11:28:34.124Z,29.70
2018-06-17T11:31:02.600Z,30.00
2018-06-17T11:33:31.082Z,29.70
2018-06-17T11:35:59.738Z,29.30
2018-06-17T11:38:28.176Z,28.80
2018-06-17T11:40:56.651Z,28.50
2018-06-17T11:43:25.104Z,28.00
2018-06-17T11:45:55.250Z,28.30
2018-06-17T11:50:52.167Z,30.50
2018-06-17T11:53:20.704Z,31.50
2018-06-17T11:55:49.288Z,32.50
2018-06-17T11:58:17.837Z,33.30
2018-06-17T12:00:46.358Z,33.70
2018-06-17T12:03:14.797Z,33.80
2018-06-17T12:05:43.326Z,33.50
2018-06-17T12:08:11.902Z,33.40
2018-06-17T12:10:40.388Z,34.50
2018-06-17T12:13:08.821Z,34.90
2018-06-17T12:15:37.245Z,33.80
2018-06-17T12:18:05.730Z,32.60
2018-06-17T12:20:34.242Z,30.60
2018-06-17T12:23:03.139Z,29.40
2018-06-17T12:25:32.136Z,28.60
2018-06-17T12:28:00.603Z,27.90
2018-06-17T12:30:29.375Z,27.30
2018-06-17T12:32:58.043Z,26.70
2018-06-17T12:35:26.582Z,26.60
2018-06-17T12:40:23.283Z,26.10
2018-06-17T12:42:51.725Z,26.10
2018-06-17T12:45:20.536Z,26.10
2018-06-17T12:47:49.092Z,26.30
2018-06-17T12:50:17.639Z,26.40
2018-06-17T12:52:46.434Z,26.60
2018-06-17T12:55:14.970Z,26.70
2018-06-17T12:57:43.591Z,26.80
2018-06-17T13:00:12.446Z,26.90
2018-06-17T13:02:41.086Z,26.90
2018-06-17T13:05:09.629Z,26.60
2018-06-17T13:07:38.400Z,26.80
2018-06-17T13:10:07.026Z,26.70
2018-06-17T13:12:35.651Z,27.50
2018-06-17T13:15:04.311Z,27.70
2018-06-17T13:17:34.132Z,28.70
2018-06-17T13:20:02.834Z,28.90
2018-06-17T13:22:32.016Z,29.90
2018-06-17T13:25:00.825Z,29.60
2018-06-17T13:27:29.439Z,29.00
2018-06-17T13:29:57.905Z,28.30
2018-06-17T13:32:26.356Z,27.20
2018-06-17T13:34:55.486Z,26.00
2018-06-17T13:37:23.926Z,25.70
2018-06-17T13:39:52.475Z,25.30
2018-06-17T13:42:20.951Z,25.20
2018-06-17T13:44:49.433Z,25.50
2018-06-17T13:47:17.892Z,25.70
2018-06-17T13:49:46.370Z,25.90
2018-06-17T13:52:15.213Z,25.90
2018-06-17T13:54:43.793Z,26.10
2018-06-17T13:57:12.268Z,26.50
2018-06-17T13:59:40.970Z,26.80
2018-06-17T14:02:09.474Z,26.60
2018-06-17T14:04:38.178Z,26.30
2018-06-17T14:07:06.724Z,26.00
2018-06-17T14:09:35.299Z,26.10
2018-06-17T14:14:32.019Z,26.60
2018-06-17T14:17:00.570Z,26.70
2018-06-17T14:19:29.104Z,26.60
2018-06-17T14:21:57.630Z,26.30
2018-06-17T14:24:26.384Z,26.20
2018-06-17T14:26:55.015Z,26.00
2018-06-17T14:29:23.543Z,26.20
2018-06-17T14:31:52.101Z,26.30
2018-06-17T14:34:20.599Z,26.20
2018-06-17T14:36:49.146Z,26.20
2018-06-17T14:39:17.623Z,26.30
2018-06-17T14:41:50.388Z,26.40
2018-06-17T14:45:25.950Z,26.50
2018-06-17T14:47:59.760Z,26.70
2018-06-17T14:51:34.178Z,26.20
2018-06-17T14:54:02.760Z,25.70
2018-06-17T14:56:31.216Z,25.70
2018-06-17T14:58:59.736Z,25.90
2018-06-17T15:01:28.430Z,25.90
2018-06-17T15:03:56.954Z,25.80
2018-06-17T15:06:25.376Z,25.90
2018-06-17T15:08:53.844Z,25.80
2018-06-17T15:11:22.364Z,25.70
2018-06-17T15:13:51.260Z,25.70
2018-06-17T15:16:19.815Z,25.80
2018-06-17T15:18:48.414Z,25.90
2018-06-17T15:21:16.918Z,25.70
2018-06-17T15:23:45.379Z,25.90
2018-06-17T15:26:13.803Z,26.10
2018-06-17T15:28:42.424Z,26.10
2018-06-17T15:31:16.149Z,26.00
2018-06-17T15:33:49.828Z,25.90
2018-06-17T15:36:23.852Z,25.80
2018-06-17T15:38:54.040Z,25.70
2018-06-17T15:41:25.199Z,25.50
2018-06-17T15:43:55.215Z,25.40
2018-06-17T15:46:23.864Z,25.20
2018-06-17T15:48:52.445Z,25.10
2018-06-17T15:51:21.030Z,25.10
2018-06-17T15:53:50.214Z,25.00
2018-06-17T15:56:18.714Z,24.80
2018-06-17T15:58:47.293Z,24.80
2018-06-17T16:01:15.809Z,24.80
2018-06-17T16:03:45.297Z,24.70
2018-06-17T16:06:14.909Z,24.70
2018-06-17T16:08:43.425Z,24.90
2018-06-17T16:11:11.920Z,25.00
2018-06-17T16:13:45.878Z,25.20
2018-06-17T16:16:19.761Z,25.20
2018-06-17T16:18:53.901Z,25.10
2018-06-17T16:21:25.298Z,24.80
2018-06-17T16:23:53.834Z,24.80
2018-06-17T16:26:22.369Z,25.00
2018-06-17T16:28:50.837Z,25.10
2018-06-17T16:31:19.543Z,25.20
2018-06-17T16:33:48.127Z,25.10
2018-06-17T16:36:18.107Z,25.10
2018-06-17T16:38:46.551Z,25.10
2018-06-17T16:41:16.481Z,25.20
2018-06-17T16:43:44.992Z,25.40
2018-06-17T16:46:13.516Z,25.60
2018-06-17T16:48:42.083Z,25.50
2018-06-17T16:51:15.981Z,25.60
2018-06-17T16:53:49.875Z,25.50
2018-06-17T16:56:23.759Z,25.50
2018-06-17T16:58:59.099Z,25.50
2018-06-17T17:01:27.666Z,25.60
2018-06-17T17:03:56.220Z,25.60
2018-06-17T17:06:24.855Z,25.50
2018-06-17T17:08:53.326Z,25.70
2018-06-17T17:11:22.417Z,25.60
2018-06-17T17:13:53.523Z,25.30
2018-06-17T17:16:22.081Z,25.30
2018-06-17T17:18:50.733Z,25.20
2018-06-17T17:21:19.356Z,25.10
2018-06-17T17:23:49.288Z,25.00
2018-06-17T17:26:17.869Z,24.90
2018-06-17T17:28:46.496Z,24.80
2018-06-17T17:31:15.189Z,24.80
2018-06-17T17:33:49.225Z,24.60
2018-06-17T17:36:23.673Z,24.40
2018-06-17T17:38:57.845Z,24.30
2018-06-17T17:41:27.903Z,24.20
2018-06-17T17:43:56.459Z,24.00
2018-06-17T17:46:30.223Z,23.90
2018-06-17T17:49:00.028Z,23.80
2018-06-17T17:51:29.080Z,23.70
2018-06-17T17:53:58.726Z,23.70
2018-06-17T17:56:28.789Z,23.60
2018-06-17T17:58:58.742Z,23.50
2018-06-17T18:01:27.331Z,23.50
2018-06-17T18:03:57.648Z,23.40
2018-06-17T18:06:26.350Z,23.30
2018-06-17T18:08:55.201Z,23.20
2018-06-17T18:11:23.689Z,23.00
2018-06-17T18:13:52.342Z,22.90
2018-06-17T18:16:21.344Z,22.80
2018-06-17T18:18:49.985Z,22.80
2018-06-17T18:21:18.656Z,22.60
2018-06-17T18:23:49.152Z,22.60
2018-06-17T18:26:23.159Z,22.50
2018-06-17T18:28:57.074Z,22.40
2018-06-17T18:31:26.023Z,22.30
2018-06-17T18:33:59.884Z,22.20
2018-06-17T18:36:28.577Z,22.10
2018-06-17T18:38:57.460Z,22.00
2018-06-17T18:41:26.090Z,21.90
2018-06-17T18:43:54.911Z,21.90
2018-06-17T18:46:30.410Z,21.80
2018-06-17T18:49:01.851Z,21.80
2018-06-17T18:51:31.245Z,21.70
2018-06-17T18:53:59.994Z,21.60
2018-06-17T18:56:29.987Z,21.60
2018-06-17T18:58:59.254Z,21.50
2018-06-17T19:01:27.939Z,21.50
2018-06-17T19:03:57.434Z,21.40
2018-06-17T19:06:26.191Z,21.40
2018-06-17T19:09:00.110Z,21.30
2018-06-17T19:11:33.992Z,21.20
2018-06-17T19:14:07.926Z,21.20
2018-06-17T19:16:42.141Z,21.10
2018-06-17T19:19:10.988Z,21.10
2018-06-17T19:21:39.832Z,21.00
2018-06-17T19:24:08.961Z,20.90
2018-06-17T19:26:38.186Z,20.90
2018-06-17T19:29:06.996Z,20.90
2018-06-17T19:31:35.762Z,20.80
2018-06-17T19:34:04.938Z,20.80
2018-06-17T19:36:34.202Z,20.80
2018-06-17T19:39:03.601Z,20.80
2018-06-17T19:41:32.875Z,20.90
2018-06-17T19:44:01.858Z,20.90
2018-06-17T19:46:30.989Z,20.90
2018-06-17T19:48:59.977Z,20.90
2018-06-17T19:51:33.821Z,20.90
2018-06-17T19:54:07.900Z,20.80
2018-06-17T19:56:41.925Z,20.80
2018-06-17T19:59:16.026Z,20.80
2018-06-17T20:01:44.992Z,20.80
2018-06-17T20:04:14.066Z,20.80
2018-06-17T20:06:44.030Z,20.80
2018-06-17T20:09:13.383Z,20.80
2018-06-17T20:11:42.425Z,20.70
2018-06-17T20:14:11.123Z,20.70
2018-06-17T20:19:08.341Z,20.60
2018-06-17T20:21:37.201Z,20.60
2018-06-17T20:24:05.919Z,20.60
2018-06-17T20:26:34.558Z,20.60
2018-06-17T20:29:03.591Z,20.50
2018-06-17T20:31:32.056Z,20.50
2018-06-17T20:34:06.019Z,20.50
2018-06-17T20:37:42.562Z,20.50
2018-06-17T20:40:16.602Z,20.40
2018-06-17T20:42:50.586Z,20.40
2018-06-17T20:45:19.267Z,20.40
2018-06-17T20:47:47.947Z,20.40
2018-06-17T20:50:16.794Z,20.40
2018-06-17T20:55:14.696Z,20.20
2018-06-17T20:57:43.277Z,20.20
2018-06-17T21:00:11.832Z,20.20
2018-06-17T21:02:40.369Z,20.20
2018-06-17T21:05:08.901Z,20.10
2018-06-17T21:07:37.352Z,20.10
2018-06-17T21:10:06.128Z,20.10
2018-06-17T21:12:34.629Z,20.10
2018-06-17T21:15:08.459Z,20.00
2018-06-17T21:17:37.393Z,20.00
2018-06-17T21:20:11.462Z,20.00
2018-06-17T21:22:45.231Z,20.00
2018-06-17T21:25:19.078Z,19.90
2018-06-17T21:27:50.249Z,19.90
2018-06-17T21:30:19.132Z,19.80
2018-06-17T21:32:47.619Z,19.80
2018-06-17T21:35:16.400Z,19.80
2018-06-17T21:37:44.943Z,19.80
2018-06-17T21:40:13.455Z,19.70
2018-06-17T21:42:42.585Z,19.60
2018-06-17T21:45:11.636Z,19.60
2018-06-17T21:47:40.878Z,19.50
2018-06-17T21:50:09.326Z,19.40
2018-06-17T21:52:37.753Z,19.30
2018-06-17T21:55:06.493Z,19.30
2018-06-17T21:57:35.249Z,19.20
2018-06-17T22:00:05.796Z,19.20
2018-06-17T22:02:39.261Z,19.10
2018-06-17T22:05:07.930Z,19.00
2018-06-17T22:07:40.608Z,19.00
2018-06-17T22:10:14.506Z,18.90
2018-06-17T22:12:47.237Z,18.80
2018-06-17T22:15:21.517Z,18.80
2018-06-17T22:17:50.910Z,18.70
2018-06-17T22:20:19.510Z,18.70
2018-06-17T22:22:48.078Z,18.70
2018-06-17T22:25:16.864Z,18.70
2018-06-17T22:27:45.306Z,18.60
2018-06-17T22:30:13.704Z,18.60
2018-06-17T22:32:42.102Z,18.60
2018-06-17T22:35:10.586Z,18.50
2018-06-17T22:37:38.989Z,18.60
2018-06-17T22:40:07.510Z,18.40
2018-06-17T22:42:36.141Z,18.40
2018-06-17T22:45:04.814Z,18.40
2018-06-17T22:47:38.533Z,18.30
2018-06-17T22:50:07.341Z,18.40
2018-06-17T22:53:46.904Z,18.30
2018-06-17T22:56:20.686Z,18.30
2018-06-17T22:58:54.462Z,18.20
2018-06-17T23:01:28.277Z,18.20
2018-06-17T23:04:01.969Z,18.20
2018-06-17T23:06:36.081Z,18.10
2018-06-17T23:09:11.438Z,18.10
2018-06-17T23:11:39.867Z,18.00
2018-06-17T23:14:08.326Z,18.00
2018-06-17T23:16:36.920Z,18.00
2018-06-17T23:19:05.387Z,17.90
2018-06-17T23:21:33.825Z,17.90
2018-06-17T23:24:02.241Z,17.90
2018-06-17T23:26:30.651Z,17.90
2018-06-17T23:28:59.051Z,17.90
2018-06-17T23:31:27.479Z,17.90
2018-06-17T23:33:55.932Z,17.90
2018-06-17T23:36:24.400Z,17.90
2018-06-17T23:38:52.888Z,17.80
2018-06-17T23:41:21.354Z,17.70
2018-06-17T23:43:49.777Z,17.70
2018-06-17T23:46:23.729Z,17.70
2018-06-17T23:48:57.403Z,17.60
2018-06-17T23:51:31.168Z,17.60
2018-06-17T23:54:04.889Z,17.60
2018-06-17T23:56:33.401Z,17.60
2018-06-17T23:59:01.861Z,17.60
